sensor_id;sensor_type;location;lat;lon;timestamp;pressure;altitude;pressure_sealevel;temperature;humidity
56632;BME280;42503;39.928;-75.152;2023-06-22T00:04:57;102116.38;;;26.27;44.65
56632;BME280;42503;39.928;-75.152;2023-06-22T00:14:59;102095.66;;;26.18;44.41
56632;BME280;42503;39.928;-75.152;2023-06-22T00:25:00;102106.25;;;26.31;44.34
56632;BME280;42503;39.928;-75.152;2023-06-22T00:35:04;102089.97;;;26.28;44.54
56632;BME280;42503;39.928;-75.152;2023-06-22T00:45:07;102078.00;;;26.17;44.38
56632;BME280;42503;39.928;-75.152;2023-06-22T00:55:09;102074.31;;;26.22;44.64
56632;BME280;42503;39.928;-75.152;2023-06-22T01:05:14;102072.34;;;26.22;44.46
56632;BME280;42503;39.928;-75.152;2023-06-22T01:15:21;102070.94;;;26.20;44.47
56632;BME280;42503;39.928;-75.152;2023-06-22T01:25:41;102074.63;;;26.15;44.55
56632;BME280;42503;39.928;-75.152;2023-06-22T01:35:44;102070.72;;;26.16;44.59
56632;BME280;42503;39.928;-75.152;2023-06-22T01:45:46;102076.84;;;26.18;44.75
56632;BME280;42503;39.928;-75.152;2023-06-22T01:55:48;102064.78;;;26.18;44.46
56632;BME280;42503;39.928;-75.152;2023-06-22T02:05:53;102033.47;;;26.00;44.40
56632;BME280;42503;39.928;-75.152;2023-06-22T02:15:56;102062.28;;;26.11;44.72
56632;BME280;42503;39.928;-75.152;2023-06-22T02:25:58;102059.22;;;26.13;44.61
56632;BME280;42503;39.928;-75.152;2023-06-22T02:35:59;102048.56;;;26.09;44.44
56632;BME280;42503;39.928;-75.152;2023-06-22T02:46:01;102040.16;;;26.09;44.25
56632;BME280;42503;39.928;-75.152;2023-06-22T02:56:02;102039.84;;;26.11;43.93
56632;BME280;42503;39.928;-75.152;2023-06-22T03:06:06;102021.97;;;26.02;44.10
56632;BME280;42503;39.928;-75.152;2023-06-22T03:16:07;102039.88;;;26.06;44.25
56632;BME280;42503;39.928;-75.152;2023-06-22T03:26:09;102045.53;;;26.01;44.03
56632;BME280;42503;39.928;-75.152;2023-06-22T03:36:11;102039.34;;;26.04;44.10
56632;BME280;42503;39.928;-75.152;2023-06-22T03:46:13;102019.44;;;26.00;43.93
56632;BME280;42503;39.928;-75.152;2023-06-22T03:56:14;101983.94;;;25.85;44.01
56632;BME280;42503;39.928;-75.152;2023-06-22T04:06:21;101998.97;;;26.00;43.97
56632;BME280;42503;39.928;-75.152;2023-06-22T04:16:23;101974.56;;;26.00;44.04
56632;BME280;42503;39.928;-75.152;2023-06-22T04:26:25;101955.84;;;25.91;44.12
56632;BME280;42503;39.928;-75.152;2023-06-22T04:36:26;101951.03;;;25.96;44.18
56632;BME280;42503;39.928;-75.152;2023-06-22T04:46:31;101937.91;;;25.92;44.22
56632;BME280;42503;39.928;-75.152;2023-06-22T04:56:35;101933.44;;;25.91;44.45
56632;BME280;42503;39.928;-75.152;2023-06-22T05:06:36;101919.97;;;25.88;44.60
56632;BME280;42503;39.928;-75.152;2023-06-22T05:16:38;101925.06;;;25.85;44.60
56632;BME280;42503;39.928;-75.152;2023-06-22T05:26:43;101918.34;;;25.81;44.88
56632;BME280;42503;39.928;-75.152;2023-06-22T05:36:44;101917.22;;;25.82;44.88
56632;BME280;42503;39.928;-75.152;2023-06-22T05:46:45;101900.44;;;25.77;44.80
56632;BME280;42503;39.928;-75.152;2023-06-22T05:56:49;101907.69;;;25.78;45.08
56632;BME280;42503;39.928;-75.152;2023-06-22T06:06:50;101908.53;;;25.79;45.10
56632;BME280;42503;39.928;-75.152;2023-06-22T06:16:51;101899.88;;;25.75;45.16
56632;BME280;42503;39.928;-75.152;2023-06-22T06:26:55;101892.84;;;25.73;45.11
56632;BME280;42503;39.928;-75.152;2023-06-22T06:36:56;101883.91;;;25.71;44.93
56632;BME280;42503;39.928;-75.152;2023-06-22T06:46:58;101866.53;;;25.69;45.15
56632;BME280;42503;39.928;-75.152;2023-06-22T06:56:59;101869.06;;;25.65;45.20
56632;BME280;42503;39.928;-75.152;2023-06-22T07:07:01;101854.00;;;25.56;45.20
56632;BME280;42503;39.928;-75.152;2023-06-22T07:17:05;101860.44;;;25.62;45.44
56632;BME280;42503;39.928;-75.152;2023-06-22T07:27:07;101874.44;;;25.62;45.56
56632;BME280;42503;39.928;-75.152;2023-06-22T07:37:08;101872.50;;;25.57;45.50
56632;BME280;42503;39.928;-75.152;2023-06-22T07:47:10;101869.16;;;25.55;45.33
56632;BME280;42503;39.928;-75.152;2023-06-22T07:57:11;101858.31;;;25.43;45.41
56632;BME280;42503;39.928;-75.152;2023-06-22T08:07:13;101870.84;;;25.51;45.12
56632;BME280;42503;39.928;-75.152;2023-06-22T08:17:19;101862.44;;;25.51;45.00
56632;BME280;42503;39.928;-75.152;2023-06-22T08:27:21;101864.97;;;25.47;45.02
56632;BME280;42503;39.928;-75.152;2023-06-22T08:37:24;101864.16;;;25.47;44.84
56632;BME280;42503;39.928;-75.152;2023-06-22T08:47:31;101870.88;;;25.46;44.59
56632;BME280;42503;39.928;-75.152;2023-06-22T08:57:33;101876.22;;;25.42;44.21
56632;BME280;42503;39.928;-75.152;2023-06-22T09:07:34;101884.94;;;25.41;44.72
56632;BME280;42503;39.928;-75.152;2023-06-22T09:17:35;101896.13;;;25.41;44.48
56632;BME280;42503;39.928;-75.152;2023-06-22T09:27:37;101891.09;;;25.38;44.49
56632;BME280;42503;39.928;-75.152;2023-06-22T09:37:40;101905.41;;;25.36;44.43
56632;BME280;42503;39.928;-75.152;2023-06-22T09:47:41;101889.16;;;25.33;44.45
56632;BME280;42503;39.928;-75.152;2023-06-22T09:57:43;101891.16;;;25.27;44.35
56632;BME280;42503;39.928;-75.152;2023-06-22T10:07:44;101885.28;;;25.24;44.42
56632;BME280;42503;39.928;-75.152;2023-06-22T10:17:48;101899.03;;;25.25;44.61
56632;BME280;42503;39.928;-75.152;2023-06-22T10:27:53;101905.19;;;25.22;44.51
56632;BME280;42503;39.928;-75.152;2023-06-22T10:37:56;101901.00;;;25.20;44.78
56632;BME280;42503;39.928;-75.152;2023-06-22T10:48:00;101911.38;;;25.19;44.73
56632;BME280;42503;39.928;-75.152;2023-06-22T10:58:02;101914.19;;;25.14;44.78
56632;BME280;42503;39.928;-75.152;2023-06-22T11:08:03;101925.13;;;25.16;44.78
56632;BME280;42503;39.928;-75.152;2023-06-22T11:18:05;101928.50;;;25.13;44.88
56632;BME280;42503;39.928;-75.152;2023-06-22T11:28:08;101938.88;;;25.12;45.13
56632;BME280;42503;39.928;-75.152;2023-06-22T11:38:09;101937.72;;;25.13;45.38
56632;BME280;42503;39.928;-75.152;2023-06-22T11:48:11;101944.19;;;25.08;45.34
56632;BME280;42503;39.928;-75.152;2023-06-22T11:58:12;101944.19;;;25.08;45.70
56632;BME280;42503;39.928;-75.152;2023-06-22T12:08:13;101943.34;;;25.08;45.38
56632;BME280;42503;39.928;-75.152;2023-06-22T12:18:15;101960.16;;;25.08;45.31
56632;BME280;42503;39.928;-75.152;2023-06-22T12:28:16;101963.50;;;25.00;45.51
56632;BME280;42503;39.928;-75.152;2023-06-22T12:38:23;101980.28;;;25.05;45.65
56632;BME280;42503;39.928;-75.152;2023-06-22T12:48:27;101930.50;;;24.81;45.51
56632;BME280;42503;39.928;-75.152;2023-06-22T12:58:29;101957.34;;;25.03;45.62
56632;BME280;42503;39.928;-75.152;2023-06-22T13:08:30;101953.13;;;25.00;45.44
56632;BME280;42503;39.928;-75.152;2023-06-22T13:18:31;101951.47;;;24.99;45.39
56632;BME280;42503;39.928;-75.152;2023-06-22T13:28:34;101951.47;;;24.99;45.33
56632;BME280;42503;39.928;-75.152;2023-06-22T13:38:38;101946.16;;;24.98;45.57
56632;BME280;42503;39.928;-75.152;2023-06-22T13:48:39;101976.38;;;25.01;45.53
56632;BME280;42503;39.928;-75.152;2023-06-22T13:58:41;101958.47;;;24.97;46.05
56632;BME280;42503;39.928;-75.152;2023-06-22T14:08:43;101968.56;;;24.98;45.76
56632;BME280;42503;39.928;-75.152;2023-06-22T14:18:47;101965.75;;;24.98;45.58
56632;BME280;42503;39.928;-75.152;2023-06-22T14:28:48;101968.00;;;24.96;45.57
56632;BME280;42503;39.928;-75.152;2023-06-22T14:38:53;101950.06;;;24.92;45.88
56632;BME280;42503;39.928;-75.152;2023-06-22T14:48:54;101958.47;;;24.97;46.05
56632;BME280;42503;39.928;-75.152;2023-06-22T14:58:55;101991.22;;;24.96;46.24
56632;BME280;42503;39.928;-75.152;2023-06-22T15:08:57;101988.16;;;24.98;46.35
56632;BME280;42503;39.928;-75.152;2023-06-22T15:19:00;101979.75;;;24.98;46.34
56632;BME280;42503;39.928;-75.152;2023-06-22T15:29:04;101992.91;;;24.92;46.19
56632;BME280;42503;39.928;-75.152;2023-06-22T15:39:05;101992.66;;;24.94;46.38
56632;BME280;42503;39.928;-75.152;2023-06-22T15:49:07;101994.03;;;24.96;46.39
56632;BME280;42503;39.928;-75.152;2023-06-22T15:59:11;101984.25;;;24.94;46.79
56632;BME280;42503;39.928;-75.152;2023-06-22T16:09:15;101992.06;;;24.97;46.70
56632;BME280;42503;39.928;-75.152;2023-06-22T16:19:16;101983.69;;;24.92;46.87
56632;BME280;42503;39.928;-75.152;2023-06-22T16:29:18;101985.63;;;24.96;47.13
56632;BME280;42503;39.928;-75.152;2023-06-22T16:39:19;101982.00;;;24.91;47.33
56632;BME280;42503;39.928;-75.152;2023-06-22T16:49:21;101963.53;;;24.90;47.70
56632;BME280;42503;39.928;-75.152;2023-06-22T16:59:22;101968.00;;;24.96;47.48
56632;BME280;42503;39.928;-75.152;2023-06-22T17:09:26;101919.28;;;24.87;48.04
56632;BME280;42503;39.928;-75.152;2023-06-22T17:19:31;101922.66;;;24.94;47.73
56632;BME280;42503;39.928;-75.152;2023-06-22T17:29:33;101914.25;;;24.94;48.32
56632;BME280;42503;39.928;-75.152;2023-06-22T17:39:35;101897.50;;;24.83;48.41
56632;BME280;42503;39.928;-75.152;2023-06-22T17:49:38;101904.44;;;24.91;48.10
56632;BME280;42503;39.928;-75.152;2023-06-22T17:59:39;101865.31;;;24.76;47.96
56632;BME280;42503;39.928;-75.152;2023-06-22T18:09:41;101887.38;;;24.88;48.02
56632;BME280;42503;39.928;-75.152;2023-06-22T18:19:43;101870.31;;;24.89;48.36
56632;BME280;42503;39.928;-75.152;2023-06-22T18:29:48;101866.34;;;24.95;48.40
56632;BME280;42503;39.928;-75.152;2023-06-22T18:39:53;101840.69;;;24.73;48.42
56632;BME280;42503;39.928;-75.152;2023-06-22T18:50:06;101849.88;;;24.89;48.55
56632;BME280;42503;39.928;-75.152;2023-06-22T19:00:09;101859.66;;;24.91;48.58
56632;BME280;42503;39.928;-75.152;2023-06-22T19:10:44;101849.31;;;24.87;48.94
56632;BME280;42503;39.928;-75.152;2023-06-22T19:21:07;101850.13;;;24.87;48.60
56632;BME280;42503;39.928;-75.152;2023-06-22T19:31:09;101831.94;;;24.95;48.57
56632;BME280;42503;39.928;-75.152;2023-06-22T19:41:11;101835.03;;;24.93;48.79
56632;BME280;42503;39.928;-75.152;2023-06-22T19:51:16;101834.19;;;24.93;48.81
56632;BME280;42503;39.928;-75.152;2023-06-22T20:01:17;101822.41;;;24.91;49.03
56632;BME280;42503;39.928;-75.152;2023-06-22T20:11:28;101793.41;;;24.71;49.39
56632;BME280;42503;39.928;-75.152;2023-06-22T20:21:32;101814.03;;;24.91;49.17
56632;BME280;42503;39.928;-75.152;2023-06-22T20:31:34;101819.06;;;24.94;49.20
56632;BME280;42503;39.928;-75.152;2023-06-22T20:41:36;101808.69;;;24.94;49.28
56632;BME280;42503;39.928;-75.152;2023-06-22T20:51:37;101783.50;;;24.94;49.21
56632;BME280;42503;39.928;-75.152;2023-06-22T21:01:41;101784.84;;;24.97;49.23
56632;BME280;42503;39.928;-75.152;2023-06-22T21:11:47;101783.78;;;24.93;49.68
56632;BME280;42503;39.928;-75.152;2023-06-22T21:21:48;101767.00;;;24.93;49.39
56632;BME280;42503;39.928;-75.152;2023-06-22T21:31:52;101778.16;;;24.98;49.79
56632;BME280;42503;39.928;-75.152;2023-06-22T21:41:53;101791.56;;;25.01;49.68
56632;BME280;42503;39.928;-75.152;2023-06-22T21:51:55;101769.47;;;24.99;49.42
56632;BME280;42503;39.928;-75.152;2023-06-22T22:01:56;101771.72;;;24.97;49.66
56632;BME280;42503;39.928;-75.152;2023-06-22T22:12:00;101760.22;;;24.99;49.71
56632;BME280;42503;39.928;-75.152;2023-06-22T22:22:02;101763.06;;;24.94;49.67
56632;BME280;42503;39.928;-75.152;2023-06-22T22:32:04;101757.72;;;24.97;49.97
56632;BME280;42503;39.928;-75.152;2023-06-22T22:42:07;101751.81;;;24.99;49.83
56632;BME280;42503;39.928;-75.152;2023-06-22T22:52:09;101757.38;;;25.04;49.96
56632;BME280;42503;39.928;-75.152;2023-06-22T23:02:10;101764.66;;;25.05;49.75
56632;BME280;42503;39.928;-75.152;2023-06-22T23:12:11;101751.25;;;25.02;49.53
56632;BME280;42503;39.928;-75.152;2023-06-22T23:22:13;101756.00;;;25.06;49.51
56632;BME280;42503;39.928;-75.152;2023-06-22T23:32:17;101752.91;;;25.08;49.34
56632;BME280;42503;39.928;-75.152;2023-06-22T23:42:18;101745.06;;;25.05;49.43
56632;BME280;42503;39.928;-75.152;2023-06-22T23:52:20;101746.19;;;25.04;49.46
